Terminal Aerodrome Forecast
Issued by NWS Blacksburg, VA

Home | Current Version | Previous Version | Text Only | Print | Product List | Glossary On
Versions: 1 2 3 4 5 6 7 8 9 10 11 12 13 14 15 16 17 18 19 20 21 22 23 24 25 26 27 28 29 30 31 32 33 34
000
FTUS41 KRNK 061602 AAB
TAFROA
TAF AMD
KROA 061602Z 0616/0712 09009KT 2SM RA BR BKN012 OVC017
     FM061700 11008G16KT 1 1/2SM -RA BR OVC007
     FM062200 VRB03KT 3SM -DZ BR OVC005
     FM070600 29007KT P6SM SCT015 BKN050=

USA.gov is the U.S. government's official web portal to all federal, state and local government web resources and services.